Time;durP1;ratioP1;P1;durP2;ratioP2;P2;SDS_P1;SDS_P2;PMS_P1;PMS_P2;Temp;Humidity;BMP_temperature;BMP_pressure;BME280_temperature;BME280_humidity;BME280_pressure;Samples;Min_cycle;Max_cycle;Signal;HPM_P1;HPM_P2
2023/05/21 00:02:16;;;;;;;15.70;14.30;;;17.60;99.90;;;;;;5025838;28;20175;-72
2023/05/21 00:04:44;;;;;;;16.20;14.60;;;17.60;99.90;;;;;;5025002;28;20169;-72
2023/05/21 00:07:11;;;;;;;16.27;14.77;;;17.60;99.90;;;;;;5025074;28;20477;-73
2023/05/21 00:09:37;;;;;;;16.87;15.20;;;17.60;99.90;;;;;;5015969;28;20403;-72
2023/05/21 00:12:07;;;;;;;15.13;13.63;;;17.50;99.90;;;;;;5015265;28;20935;-72
2023/05/21 00:14:33;;;;;;;15.57;14.13;;;17.50;99.90;;;;;;5015393;28;20227;-72
2023/05/21 00:16:58;;;;;;;16.90;15.30;;;17.60;99.90;;;;;;5014631;28;20454;-73
2023/05/21 00:19:25;;;;;;;18.03;16.23;;;17.40;99.90;;;;;;5015159;28;20473;-72
2023/05/21 00:21:51;;;;;;;17.50;15.87;;;17.50;99.90;;;;;;5010057;28;20177;-72
2023/05/21 00:24:17;;;;;;;17.67;15.97;;;17.40;99.90;;;;;;4994576;28;20407;-72
2023/05/21 00:26:42;;;;;;;15.80;14.27;;;17.30;99.90;;;;;;5008126;28;20399;-72
2023/05/21 00:29:08;;;;;;;16.63;15.17;;;17.40;99.90;;;;;;5034427;28;20253;-72
2023/05/21 00:31:34;;;;;;;14.83;13.33;;;17.30;99.90;;;;;;5034555;28;20229;-72
2023/05/21 00:33:59;;;;;;;15.83;14.33;;;17.40;99.90;;;;;;5034754;28;20175;-72
2023/05/21 00:36:25;;;;;;;16.80;15.10;;;17.40;99.90;;;;;;5034470;28;20214;-72
2023/05/21 00:38:51;;;;;;;16.90;15.10;;;17.40;99.90;;;;;;5033719;28;20193;-73
2023/05/21 00:41:16;;;;;;;20.10;17.93;;;17.40;99.90;;;;;;5034108;28;20174;-72
2023/05/21 00:43:43;;;;;;;16.60;14.90;;;17.40;99.90;;;;;;5034065;28;20222;-72
2023/05/21 00:46:19;;;;;;;16.50;14.97;;;17.40;99.90;;;;;;5034124;28;20207;-72
2023/05/21 00:48:46;;;;;;;18.37;16.73;;;17.30;99.90;;;;;;5034420;28;20429;-72
2023/05/21 00:51:13;;;;;;;17.50;15.90;;;17.10;99.90;;;;;;5034675;28;20489;-72
2023/05/21 00:53:39;;;;;;;20.47;18.50;;;17.10;99.90;;;;;;5014095;28;20419;-72
2023/05/21 00:56:06;;;;;;;18.47;16.67;;;17.20;99.90;;;;;;4996441;28;20457;-73
2023/05/21 00:58:32;;;;;;;16.83;15.17;;;17.20;99.90;;;;;;5014320;28;20445;-72
2023/05/21 01:01:02;;;;;;;16.50;14.90;;;17.30;99.90;;;;;;5013639;28;20896;-72
2023/05/21 01:03:29;;;;;;;17.33;15.67;;;17.30;99.90;;;;;;5013888;28;20882;-72
2023/05/21 01:05:58;;;;;;;18.97;17.07;;;17.20;99.90;;;;;;5014042;28;20406;-72
2023/05/21 01:08:26;;;;;;;18.73;17.13;;;17.20;99.90;;;;;;5013419;28;20436;-73
2023/05/21 01:10:52;;;;;;;17.10;15.47;;;17.30;99.90;;;;;;5013815;28;20411;-72
2023/05/21 01:13:21;;;;;;;16.93;15.33;;;17.30;99.90;;;;;;5013584;28;20410;-72
2023/05/21 01:15:48;;;;;;;18.20;16.60;;;17.30;99.90;;;;;;5013511;28;20454;-72
2023/05/21 01:18:14;;;;;;;17.17;15.47;;;17.30;99.90;;;;;;5013518;28;20435;-72
2023/05/21 01:20:46;;;;;;;19.60;17.80;;;17.40;99.90;;;;;;5013791;28;20433;-72
2023/05/21 01:23:21;;;;;;;18.17;16.57;;;17.20;99.90;;;;;;5013531;28;20488;-72
2023/05/21 01:25:47;;;;;;;21.13;19.00;;;17.10;99.90;;;;;;5013948;28;20390;-72
2023/05/21 01:28:13;;;;;;;20.30;18.30;;;17.10;99.90;;;;;;5013804;28;20517;-72
2023/05/21 01:30:40;;;;;;;18.67;16.90;;;17.10;99.90;;;;;;5013866;28;20203;-73
2023/05/21 01:33:23;;;;;;;20.80;18.70;;;17.10;99.90;;;;;;5013863;28;20411;-72
2023/05/21 01:36:10;;;;;;;19.30;17.40;;;17.20;99.90;;;;;;5027742;28;20445;-72
2023/05/21 01:38:59;;;;;;;18.83;17.03;;;17.20;99.90;;;;;;5032723;28;20433;-72
2023/05/21 01:41:28;;;;;;;17.77;15.97;;;17.20;99.90;;;;;;5033167;28;20393;-72
2023/05/21 01:43:55;;;;;;;17.80;16.13;;;17.20;99.90;;;;;;5032885;28;20402;-71
2023/05/21 01:46:25;;;;;;;18.50;16.73;;;17.10;99.90;;;;;;5032827;28;20831;-72
2023/05/21 01:48:53;;;;;;;18.83;16.93;;;17.00;99.90;;;;;;5033043;28;20422;-71
2023/05/21 01:51:19;;;;;;;18.77;16.87;;;17.00;99.90;;;;;;5014968;28;20420;-72
2023/05/21 01:53:45;;;;;;;18.53;16.83;;;16.90;99.90;;;;;;5032239;28;20424;-72
2023/05/21 01:56:11;;;;;;;21.83;19.80;;;16.90;99.90;;;;;;5032758;28;20545;-72
2023/05/21 01:58:37;;;;;;;18.10;16.20;;;16.90;99.90;;;;;;5031364;28;20195;-72
2023/05/21 02:01:03;;;;;;;21.40;18.33;;;16.90;99.90;;;;;;5014873;28;20503;-71
2023/05/21 02:03:30;;;;;;;21.47;19.40;;;16.90;99.90;;;;;;5032848;28;20187;-71
2023/05/21 02:05:55;;;;;;;20.83;18.90;;;16.90;99.90;;;;;;5032561;28;20418;-71
2023/05/21 02:08:22;;;;;;;18.70;16.90;;;16.90;99.90;;;;;;5014782;28;20494;-72
2023/05/21 02:10:48;;;;;;;18.43;16.60;;;16.80;99.90;;;;;;5033131;28;20179;-72
2023/05/21 02:13:13;;;;;;;18.27;16.37;;;16.80;99.90;;;;;;5031284;28;20468;-72
2023/05/21 02:15:39;;;;;;;22.80;20.70;;;16.80;99.90;;;;;;5032540;28;20980;-72
2023/05/21 02:18:04;;;;;;;20.80;18.80;;;16.80;99.90;;;;;;5032259;28;20195;-72
2023/05/21 02:20:30;;;;;;;18.83;17.03;;;16.90;99.90;;;;;;5032119;28;20261;-72
2023/05/21 02:22:56;;;;;;;20.10;18.30;;;16.90;99.90;;;;;;5032327;28;20181;-72
2023/05/21 02:25:21;;;;;;;21.10;19.03;;;16.90;99.90;;;;;;5032098;28;20407;-72
2023/05/21 02:27:51;;;;;;;22.57;20.03;;;16.70;99.90;;;;;;5022007;28;20208;-72
2023/05/21 02:30:17;;;;;;;18.27;16.57;;;16.60;99.90;;;;;;5012864;28;20163;-72
2023/05/21 02:32:43;;;;;;;20.43;18.37;;;16.60;99.90;;;;;;5012613;28;20415;-72
2023/05/21 02:35:11;;;;;;;20.03;18.13;;;16.70;99.90;;;;;;4994954;28;20182;-71
2023/05/21 02:37:39;;;;;;;20.80;18.80;;;16.60;99.90;;;;;;5012674;28;20457;-72
2023/05/21 02:40:06;;;;;;;22.40;20.17;;;16.50;99.90;;;;;;5012484;28;20454;-72
2023/05/21 02:42:32;;;;;;;21.63;19.43;;;16.60;99.90;;;;;;5012044;28;20398;-72
2023/05/21 02:44:57;;;;;;;20.83;18.87;;;16.60;99.90;;;;;;5012474;28;20841;-73
2023/05/21 02:47:24;;;;;;;22.30;20.00;;;16.60;99.90;;;;;;5012741;28;20500;-72
2023/05/21 02:49:50;;;;;;;20.93;18.73;;;16.70;99.90;;;;;;5012988;28;20199;-72
2023/05/21 02:52:17;;;;;;;21.47;18.93;;;16.70;99.90;;;;;;5012432;28;20413;-72
2023/05/21 02:54:43;;;;;;;22.00;19.60;;;16.60;99.90;;;;;;4994710;28;20418;-71
2023/05/21 02:57:09;;;;;;;21.37;19.20;;;16.60;99.90;;;;;;5016966;28;20469;-72
2023/05/21 02:59:35;;;;;;;20.47;18.40;;;16.60;99.90;;;;;;5031727;28;20962;-72
2023/05/21 03:02:00;;;;;;;22.07;19.97;;;16.60;99.90;;;;;;5032133;28;20167;-72
2023/05/21 03:04:27;;;;;;;22.83;20.57;;;16.60;99.90;;;;;;5031955;28;20206;-72
2023/05/21 03:06:53;;;;;;;21.23;19.23;;;16.70;99.90;;;;;;5032069;28;20568;-72
2023/05/21 03:09:20;;;;;;;20.13;18.13;;;16.70;99.90;;;;;;5032450;28;20495;-72
2023/05/21 03:11:46;;;;;;;22.30;20.10;;;16.60;99.90;;;;;;5032227;28;20497;-72
2023/05/21 03:14:12;;;;;;;21.67;19.60;;;16.60;99.90;;;;;;5031743;28;20952;-72
2023/05/21 03:16:40;;;;;;;24.40;21.93;;;16.50;99.90;;;;;;5031828;28;20194;-72
2023/05/21 03:19:06;;;;;;;20.47;18.47;;;16.40;99.90;;;;;;5032312;28;20187;-72
2023/05/21 03:21:32;;;;;;;20.03;18.07;;;16.40;99.90;;;;;;5013583;28;20464;-72
2023/05/21 03:23:58;;;;;;;21.60;19.47;;;16.40;99.90;;;;;;5011767;28;20399;-72
2023/05/21 03:26:26;;;;;;;22.67;20.30;;;16.40;99.90;;;;;;5016143;28;20425;-72
2023/05/21 03:28:52;;;;;;;21.37;19.23;;;16.30;99.90;;;;;;5015611;28;20207;-72
2023/05/21 03:31:18;;;;;;;25.60;22.90;;;16.20;99.90;;;;;;5015972;28;20425;-72
2023/05/21 03:33:44;;;;;;;21.80;19.60;;;16.30;99.90;;;;;;5015618;28;20430;-72
2023/05/21 03:36:10;;;;;;;22.90;20.70;;;16.40;99.90;;;;;;5015528;28;20869;-71
2023/05/21 03:38:35;;;;;;;20.57;18.57;;;16.30;99.90;;;;;;5017531;28;20210;-72
2023/05/21 03:41:01;;;;;;;23.50;21.30;;;16.40;99.90;;;;;;5015671;28;20206;-72
2023/05/21 03:43:26;;;;;;;22.37;20.23;;;16.30;99.90;;;;;;5015407;28;20623;-71
2023/05/21 03:45:53;;;;;;;23.90;21.50;;;16.40;99.90;;;;;;5015575;28;20624;-71
2023/05/21 03:48:19;;;;;;;22.60;20.33;;;16.40;99.90;;;;;;5015322;28;20573;-71
2023/05/21 03:50:45;;;;;;;23.23;20.93;;;16.30;99.90;;;;;;5015490;28;20413;-72
2023/05/21 03:53:11;;;;;;;21.77;19.70;;;16.30;99.90;;;;;;5028231;28;20182;-73
2023/05/21 03:55:37;;;;;;;27.90;22.20;;;16.30;99.90;;;;;;5035256;28;20260;-72
2023/05/21 03:58:02;;;;;;;23.87;21.40;;;16.30;99.90;;;;;;5034254;28;20481;-72
2023/05/21 04:00:28;;;;;;;24.10;20.90;;;16.20;99.90;;;;;;5034945;28;20654;-71
2023/05/21 04:02:53;;;;;;;21.33;19.23;;;16.10;99.90;;;;;;5034997;28;20166;-71
2023/05/21 04:05:19;;;;;;;21.03;18.93;;;16.00;99.90;;;;;;5034869;28;20174;-72
2023/05/21 04:07:45;;;;;;;23.93;21.50;;;15.90;99.90;;;;;;5034335;28;20572;-71
2023/05/21 04:10:11;;;;;;;27.20;22.87;;;16.00;99.90;;;;;;5034808;28;20174;-72
2023/05/21 04:12:37;;;;;;;24.20;21.80;;;16.10;99.90;;;;;;5034785;28;20710;-72
2023/05/21 04:15:03;;;;;;;23.33;21.10;;;16.10;99.90;;;;;;5034911;28;20401;-72
2023/05/21 04:17:28;;;;;;;23.53;21.33;;;16.20;99.90;;;;;;5034560;28;20636;-72
2023/05/21 04:19:54;;;;;;;23.10;20.73;;;16.30;99.90;;;;;;5033971;28;20206;-71
2023/05/21 04:22:20;;;;;;;24.13;21.43;;;16.20;99.90;;;;;;5034520;28;20176;-72
2023/05/21 04:24:47;;;;;;;21.13;19.17;;;16.30;99.90;;;;;;5034560;28;20156;-72
2023/05/21 04:27:15;;;;;;;23.40;21.10;;;16.30;99.90;;;;;;5052786;23;20512;-71
2023/05/21 04:29:41;;;;;;;22.07;19.90;;;16.20;99.90;;;;;;5034454;28;20460;-73
2023/05/21 04:32:07;;;;;;;20.90;18.80;;;16.20;99.90;;;;;;5034821;28;20463;-73
2023/05/21 04:34:33;;;;;;;22.13;19.73;;;16.30;99.90;;;;;;5017000;28;20406;-73
2023/05/21 04:37:00;;;;;;;24.33;21.93;;;16.40;99.90;;;;;;5015891;28;20551;-72
2023/05/21 04:39:27;;;;;;;23.97;21.43;;;16.40;99.90;;;;;;5016428;28;20696;-73
2023/05/21 04:41:55;;;;;;;22.53;20.33;;;16.40;99.90;;;;;;5016912;28;20413;-73
2023/05/21 04:44:21;;;;;;;22.30;19.97;;;16.30;99.90;;;;;;5034589;28;20409;-72
2023/05/21 04:46:47;;;;;;;21.43;19.30;;;16.40;99.90;;;;;;5034601;28;20410;-73
2023/05/21 04:49:14;;;;;;;22.03;19.90;;;16.50;99.90;;;;;;5034591;28;20654;-73
2023/05/21 04:51:40;;;;;;;23.00;20.80;;;16.50;99.90;;;;;;5034806;28;20406;-73
2023/05/21 04:54:06;;;;;;;22.13;20.03;;;16.40;99.90;;;;;;5016451;28;20920;-73
2023/05/21 04:56:31;;;;;;;21.47;19.27;;;16.40;99.90;;;;;;5034721;28;20533;-73
2023/05/21 04:58:57;;;;;;;23.73;21.33;;;16.40;99.90;;;;;;5034574;28;20201;-73
2023/05/21 05:01:25;;;;;;;24.60;20.97;;;16.40;99.90;;;;;;5016593;28;20273;-72
2023/05/21 05:03:51;;;;;;;22.27;20.07;;;16.60;99.90;;;;;;5034221;28;20413;-72
2023/05/21 05:06:17;;;;;;;23.27;20.97;;;16.70;99.90;;;;;;5034586;28;20406;-72
2023/05/21 05:08:45;;;;;;;23.67;21.47;;;16.70;99.90;;;;;;5033713;28;20433;-72
2023/05/21 05:11:11;;;;;;;23.23;21.00;;;16.80;99.90;;;;;;5016405;28;20176;-73
2023/05/21 05:13:37;;;;;;;21.17;18.87;;;16.70;99.90;;;;;;5034416;28;20406;-73
2023/05/21 05:16:04;;;;;;;21.20;19.20;;;16.80;99.90;;;;;;5033951;28;20441;-73
2023/05/21 05:18:30;;;;;;;25.77;23.30;;;17.00;99.90;;;;;;5034162;28;20560;-73
2023/05/21 05:20:56;;;;;;;25.37;22.77;;;16.90;99.90;;;;;;5016291;28;20440;-72
2023/05/21 05:23:21;;;;;;;19.67;17.87;;;16.80;99.90;;;;;;5033595;28;20401;-73
2023/05/21 05:25:47;;;;;;;19.87;18.07;;;17.00;99.90;;;;;;5034312;28;20163;-72
2023/05/21 05:28:13;;;;;;;21.87;19.33;;;17.10;99.90;;;;;;5033662;28;20704;-73
2023/05/21 05:30:38;;;;;;;22.10;20.10;;;17.20;99.90;;;;;;5016090;28;20656;-73
2023/05/21 05:33:04;;;;;;;22.67;20.43;;;17.10;99.90;;;;;;5033608;28;20171;-73
2023/05/21 05:35:29;;;;;;;20.37;18.37;;;17.10;99.90;;;;;;5015990;28;20469;-73
2023/05/21 05:37:55;;;;;;;21.53;19.13;;;17.30;99.90;;;;;;5015332;28;20210;-73
2023/05/21 05:40:21;;;;;;;22.60;20.30;;;17.40;99.90;;;;;;5033540;28;20216;-72
2023/05/21 05:42:48;;;;;;;24.50;22.10;;;17.50;99.90;;;;;;5033415;28;20163;-73
2023/05/21 05:45:14;;;;;;;21.67;19.57;;;17.60;99.90;;;;;;5033492;28;20182;-73
2023/05/21 05:47:40;;;;;;;21.87;19.63;;;17.60;99.90;;;;;;5015635;28;20441;-72
2023/05/21 05:50:06;;;;;;;23.03;20.73;;;17.60;99.90;;;;;;5010457;28;20433;-73
2023/05/21 05:52:32;;;;;;;20.23;18.33;;;17.70;99.90;;;;;;5032855;28;20406;-72
2023/05/21 05:54:57;;;;;;;20.97;18.93;;;17.70;99.90;;;;;;5033757;28;20459;-73
2023/05/21 05:57:23;;;;;;;21.40;19.10;;;17.80;99.90;;;;;;5032479;28;20198;-72
2023/05/21 05:59:48;;;;;;;21.30;19.20;;;18.00;99.90;;;;;;5033665;28;20536;-73
2023/05/21 06:02:14;;;;;;;21.70;19.50;;;18.20;99.90;;;;;;5033062;28;20630;-73
2023/05/21 06:04:39;;;;;;;22.97;20.73;;;18.40;99.90;;;;;;5015462;28;20182;-73
2023/05/21 06:07:05;;;;;;;20.27;18.27;;;18.50;99.90;;;;;;5033175;28;20174;-73
2023/05/21 06:09:30;;;;;;;20.90;18.90;;;18.50;99.90;;;;;;5015271;28;20172;-72
2023/05/21 06:11:56;;;;;;;21.17;19.10;;;18.60;99.90;;;;;;5033231;28;20171;-73
2023/05/21 06:14:21;;;;;;;19.83;17.93;;;18.70;99.90;;;;;;5032560;28;20176;-73
2023/05/21 06:16:47;;;;;;;19.80;18.00;;;18.90;99.90;;;;;;5033081;28;20574;-73
2023/05/21 06:19:13;;;;;;;22.20;19.90;;;18.90;99.90;;;;;;5015377;28;20187;-72
2023/05/21 06:21:38;;;;;;;21.77;19.67;;;19.00;99.90;;;;;;5032774;28;20700;-72
2023/05/21 06:24:04;;;;;;;23.17;20.97;;;19.00;99.90;;;;;;5032450;28;20181;-72
2023/05/21 06:26:30;;;;;;;23.37;21.10;;;18.80;99.90;;;;;;5016038;28;20616;-72
2023/05/21 06:28:56;;;;;;;20.70;18.80;;;18.90;99.90;;;;;;5012897;28;20219;-72
2023/05/21 06:31:22;;;;;;;21.50;19.30;;;18.80;99.90;;;;;;5032862;28;20509;-72
2023/05/21 06:33:48;;;;;;;20.27;18.37;;;18.90;99.90;;;;;;5015088;28;20225;-72
2023/05/21 06:36:15;;;;;;;21.60;19.50;;;19.00;99.90;;;;;;5032919;28;20442;-72
2023/05/21 06:38:41;;;;;;;20.17;18.27;;;18.50;99.90;;;;;;5014840;28;20433;-72
2023/05/21 06:41:07;;;;;;;22.70;20.30;;;18.50;99.90;;;;;;5032745;28;20398;-72
2023/05/21 06:43:32;;;;;;;21.63;19.57;;;18.40;99.90;;;;;;5032670;28;20475;-73
2023/05/21 06:45:58;;;;;;;19.80;17.90;;;18.60;99.90;;;;;;5032611;28;20178;-72
2023/05/21 06:48:24;;;;;;;22.30;20.10;;;18.70;99.90;;;;;;5014778;28;20285;-73
2023/05/21 06:50:49;;;;;;;22.97;20.77;;;18.60;99.90;;;;;;5032607;28;20226;-73
2023/05/21 06:53:15;;;;;;;21.20;19.00;;;18.70;99.90;;;;;;5032528;28;20215;-73
2023/05/21 06:55:43;;;;;;;20.90;18.80;;;18.80;99.90;;;;;;5032559;28;20289;-73
2023/05/21 06:58:09;;;;;;;18.53;16.70;;;18.90;99.90;;;;;;5032422;28;20195;-72
2023/05/21 07:00:35;;;;;;;22.83;20.40;;;19.20;99.90;;;;;;5035453;28;20413;-71
2023/05/21 07:03:01;;;;;;;20.80;18.90;;;19.20;99.90;;;;;;5037000;28;20485;-73
2023/05/21 07:05:26;;;;;;;21.40;19.30;;;19.40;99.90;;;;;;5036639;28;20167;-73
2023/05/21 07:07:52;;;;;;;23.43;21.20;;;19.40;99.90;;;;;;5036077;28;20628;-73
2023/05/21 07:10:17;;;;;;;20.50;18.50;;;19.30;99.90;;;;;;5018702;28;20175;-73
2023/05/21 07:12:43;;;;;;;20.40;18.47;;;19.60;99.90;;;;;;5018603;28;20179;-73
2023/05/21 07:15:09;;;;;;;19.63;17.80;;;19.00;99.90;;;;;;5036408;28;20175;-73
2023/05/21 07:17:34;;;;;;;23.80;21.50;;;19.00;99.90;;;;;;5018611;28;20203;-73
2023/05/21 07:20:00;;;;;;;22.07;20.03;;;19.10;99.90;;;;;;5018700;28;20418;-73
2023/05/21 07:22:25;;;;;;;19.73;17.83;;;19.30;99.90;;;;;;5036536;28;20536;-73
2023/05/21 07:24:51;;;;;;;19.50;17.63;;;19.40;99.90;;;;;;5036112;28;20302;-73
2023/05/21 07:27:17;;;;;;;21.23;19.20;;;19.40;99.90;;;;;;5036401;28;20203;-73
2023/05/21 07:29:42;;;;;;;19.03;17.37;;;19.30;99.90;;;;;;5019535;28;20174;-73
2023/05/21 07:32:08;;;;;;;20.30;18.33;;;19.40;99.90;;;;;;5037879;28;20175;-73
2023/05/21 07:34:33;;;;;;;18.60;16.90;;;19.10;99.90;;;;;;5020303;28;20175;-73
2023/05/21 07:36:59;;;;;;;19.80;17.97;;;19.20;99.90;;;;;;5037009;28;20195;-73
2023/05/21 07:39:24;;;;;;;19.77;17.80;;;19.20;99.90;;;;;;5019120;28;20652;-73
2023/05/21 07:41:50;;;;;;;20.47;18.37;;;19.40;99.90;;;;;;5018249;28;20552;-72
2023/05/21 07:44:15;;;;;;;18.57;16.80;;;19.40;99.90;;;;;;5034692;28;20664;-72
2023/05/21 07:46:41;;;;;;;19.60;17.70;;;19.20;99.90;;;;;;5017396;28;20255;-73
2023/05/21 07:49:08;;;;;;;19.27;17.37;;;19.10;99.90;;;;;;5016353;28;20670;-74
2023/05/21 07:51:33;;;;;;;20.80;18.40;;;19.00;99.90;;;;;;4998677;28;20593;-72
2023/05/21 07:53:59;;;;;;;18.27;16.57;;;19.20;99.90;;;;;;5015803;28;20407;-73
2023/05/21 07:56:25;;;;;;;19.37;17.50;;;19.40;99.90;;;;;;5015942;28;20217;-73
2023/05/21 07:58:51;;;;;;;20.10;18.10;;;19.50;99.90;;;;;;5015161;28;20191;-74
2023/05/21 08:01:16;;;;;;;19.77;17.87;;;19.50;99.90;;;;;;4998841;28;20411;-74
2023/05/21 08:03:42;;;;;;;18.10;16.47;;;19.40;99.90;;;;;;5016616;28;20164;-74
2023/05/21 08:06:07;;;;;;;18.73;17.00;;;19.50;99.90;;;;;;5016550;28;20179;-74
2023/05/21 08:08:33;;;;;;;18.63;16.93;;;19.50;99.90;;;;;;5015775;28;20192;-74
2023/05/21 08:10:58;;;;;;;18.20;16.50;;;19.40;99.90;;;;;;5014256;28;20172;-73
2023/05/21 08:13:24;;;;;;;19.53;17.67;;;19.30;99.90;;;;;;4997514;28;20176;-74
2023/05/21 08:15:51;;;;;;;18.07;16.37;;;19.40;99.90;;;;;;5015238;28;20168;-73
2023/05/21 08:18:17;;;;;;;17.47;15.77;;;19.60;99.90;;;;;;4997543;28;20749;-73
2023/05/21 08:20:42;;;;;;;16.73;15.23;;;20.00;99.90;;;;;;5023647;28;20453;-72
2023/05/21 08:23:08;;;;;;;17.47;15.87;;;20.20;99.90;;;;;;5033374;28;20179;-72
2023/05/21 08:25:33;;;;;;;16.60;14.93;;;20.40;99.90;;;;;;5034978;28;20239;-73
2023/05/21 08:27:59;;;;;;;17.07;15.47;;;20.30;99.90;;;;;;5026357;28;20717;-72
2023/05/21 08:30:25;;;;;;;16.63;15.07;;;20.60;99.90;;;;;;5015904;28;20243;-74
2023/05/21 08:32:50;;;;;;;17.83;16.13;;;20.60;99.90;;;;;;4998132;28;20203;-73
2023/05/21 08:35:16;;;;;;;17.43;15.87;;;20.50;99.90;;;;;;5016089;28;20168;-73
2023/05/21 08:37:41;;;;;;;21.37;15.50;;;21.00;99.90;;;;;;5015379;28;20204;-73
2023/05/21 08:40:08;;;;;;;16.57;14.80;;;21.10;99.90;;;;;;4997945;28;20173;-74
2023/05/21 08:42:47;;;;;;;16.40;15.00;;;21.10;99.90;;;;;;5014981;28;20164;-75
2023/05/21 08:45:18;;;;;;;18.70;16.93;;;21.10;99.90;;;;;;5014969;28;20394;-75
2023/05/21 08:47:45;;;;;;;16.53;15.03;;;21.10;99.90;;;;;;4997447;28;20528;-75
2023/05/21 08:50:12;;;;;;;15.93;14.30;;;21.30;99.90;;;;;;5014853;28;20489;-76
2023/05/21 08:52:38;;;;;;;16.73;15.13;;;21.50;99.90;;;;;;5014881;28;20510;-75
2023/05/21 08:55:04;;;;;;;16.63;14.80;;;21.80;99.90;;;;;;5014687;28;20482;-76
2023/05/21 08:57:30;;;;;;;15.60;14.10;;;21.70;99.90;;;;;;5018978;28;20225;-76
2023/05/21 08:59:57;;;;;;;18.27;16.43;;;21.40;99.90;;;;;;5035104;28;20917;-75
2023/05/21 09:02:23;;;;;;;17.23;15.63;;;21.10;99.90;;;;;;5016773;28;20509;-76
2023/05/21 09:04:55;;;;;;;16.60;14.87;;;21.50;99.90;;;;;;5034507;28;20923;-76
2023/05/21 09:07:28;;;;;;;16.57;15.07;;;21.80;99.90;;;;;;5034806;28;20896;-76
2023/05/21 09:10:02;;;;;;;16.77;15.27;;;21.30;99.90;;;;;;5034936;28;20383;-76
2023/05/21 09:12:28;;;;;;;15.10;13.80;;;21.40;99.90;;;;;;5035982;28;20403;-76
2023/05/21 09:14:55;;;;;;;15.20;13.63;;;21.50;99.90;;;;;;5034442;28;20429;-75
2023/05/21 09:17:21;;;;;;;16.47;14.97;;;21.50;99.90;;;;;;5034799;28;20444;-76
2023/05/21 09:20:09;;;;;;;15.90;14.50;;;21.30;99.90;;;;;;5034164;28;20402;-74
2023/05/21 09:22:42;;;;;;;15.10;13.60;;;21.20;99.90;;;;;;5033777;28;20155;-74
2023/05/21 09:25:10;;;;;;;17.40;15.90;;;21.20;99.90;;;;;;5016057;28;20780;-74
2023/05/21 09:27:36;;;;;;;15.70;14.23;;;21.30;99.90;;;;;;5033622;28;20437;-75
2023/05/21 09:30:04;;;;;;;15.30;13.70;;;21.40;99.90;;;;;;5034177;28;20505;-74
2023/05/21 09:32:29;;;;;;;14.73;13.33;;;21.50;99.90;;;;;;5033805;28;20417;-74
2023/05/21 09:34:55;;;;;;;14.63;13.33;;;21.50;99.90;;;;;;5034008;28;20420;-76
2023/05/21 09:37:21;;;;;;;14.27;12.83;;;21.30;99.90;;;;;;5016362;28;20553;-75
2023/05/21 09:39:47;;;;;;;13.40;12.20;;;21.50;99.90;;;;;;5016794;28;20687;-74
2023/05/21 09:42:13;;;;;;;14.57;13.27;;;21.90;99.90;;;;;;5013979;28;20407;-76
2023/05/21 09:44:41;;;;;;;11.40;10.20;;;21.60;99.90;;;;;;5014621;28;20526;-76
2023/05/21 09:47:08;;;;;;;12.60;11.37;;;22.00;99.90;;;;;;4996536;28;20900;-76
2023/05/21 09:49:36;;;;;;;12.57;11.47;;;22.20;99.90;;;;;;5014638;28;20885;-76
2023/05/21 09:52:02;;;;;;;13.47;12.23;;;22.40;99.90;;;;;;5014246;28;20415;-75
2023/05/21 09:54:32;;;;;;;13.70;12.30;;;22.50;99.90;;;;;;5013740;28;20414;-76
2023/05/21 09:57:03;;;;;;;12.60;11.50;;;22.60;99.90;;;;;;4996674;28;20282;-76
2023/05/21 09:59:35;;;;;;;13.20;12.10;;;22.30;99.90;;;;;;5033411;28;20809;-76
2023/05/21 10:02:02;;;;;;;13.13;12.03;;;22.30;99.90;;;;;;5033648;28;20410;-76
2023/05/21 10:04:29;;;;;;;12.90;11.73;;;22.30;99.90;;;;;;5034045;28;20394;-76
2023/05/21 10:06:56;;;;;;;11.50;10.50;;;22.70;99.90;;;;;;5034358;28;20425;-75
2023/05/21 10:09:22;;;;;;;13.20;11.83;;;22.90;99.90;;;;;;5033079;28;20572;-76
2023/05/21 10:11:50;;;;;;;12.83;11.63;;;22.80;99.90;;;;;;5033866;28;20769;-76
2023/05/21 10:14:21;;;;;;;12.87;11.53;;;22.80;99.90;;;;;;5033335;28;20402;-75
2023/05/21 10:16:47;;;;;;;11.93;10.73;;;23.10;99.90;;;;;;5033769;28;20449;-75
2023/05/21 10:19:14;;;;;;;13.47;12.17;;;23.20;99.90;;;;;;5033026;28;20791;-76
2023/05/21 10:21:40;;;;;;;12.10;11.00;;;23.30;99.90;;;;;;5033408;28;20399;-75
2023/05/21 10:24:07;;;;;;;12.13;11.03;;;23.30;99.90;;;;;;5014977;28;20501;-76
2023/05/21 10:26:34;;;;;;;15.63;10.73;;;23.30;99.90;;;;;;5034165;28;20505;-76
2023/05/21 10:29:01;;;;;;;13.67;12.27;;;23.00;99.90;;;;;;5041874;23;20493;-74
2023/05/21 10:31:28;;;;;;;11.83;10.83;;;23.00;99.90;;;;;;5013130;28;20826;-74
2023/05/21 10:33:54;;;;;;;10.73;9.73;;;23.80;99.90;;;;;;5012358;28;20596;-74
2023/05/21 10:36:23;;;;;;;11.10;10.10;;;23.80;99.90;;;;;;5012748;28;20443;-73
2023/05/21 10:38:48;;;;;;;12.13;11.03;;;23.80;99.90;;;;;;5001709;28;20809;-75
2023/05/21 10:41:19;;;;;;;12.47;11.47;;;24.00;99.90;;;;;;4993365;28;20412;-74
2023/05/21 10:43:48;;;;;;;11.93;10.83;;;24.20;99.90;;;;;;4975582;28;20204;-74
2023/05/21 10:46:18;;;;;;;11.53;10.20;;;24.50;99.90;;;;;;4993526;28;20416;-74
2023/05/21 10:49:21;;;;;;;11.30;10.30;;;24.50;99.90;;;;;;4993619;28;20474;-73
2023/05/21 10:52:06;;;;;;;12.97;11.63;;;24.80;99.90;;;;;;4993349;28;20913;-74
2023/05/21 10:54:55;;;;;;;11.13;10.13;;;24.60;99.90;;;;;;4992994;28;20415;-73
2023/05/21 10:57:33;;;;;;;10.90;9.90;;;24.70;99.90;;;;;;4997191;28;20438;-74
2023/05/21 10:59:59;;;;;;;10.37;9.40;;;24.50;99.90;;;;;;5012921;28;20387;-74
2023/05/21 11:02:26;;;;;;;11.33;10.33;;;24.70;99.90;;;;;;5013561;28;20410;-73
2023/05/21 11:04:59;;;;;;;12.37;11.10;;;25.40;99.90;;;;;;5012394;28;20406;-74
2023/05/21 11:07:57;;;;;;;12.20;11.20;;;25.50;99.90;;;;;;5012965;28;20804;-74
2023/05/21 11:10:37;;;;;;;12.63;11.43;;;25.30;99.90;;;;;;5012225;28;20498;-73
2023/05/21 11:13:13;;;;;;;12.47;11.47;;;25.50;99.90;;;;;;5012611;28;20837;-74
2023/05/21 11:15:57;;;;;;;12.03;10.93;;;25.60;99.90;;;;;;5012521;28;20406;-74
2023/05/21 11:18:43;;;;;;;11.20;10.20;;;24.90;99.90;;;;;;5012596;28;20427;-74
2023/05/21 11:21:15;;;;;;;11.57;10.47;;;25.20;99.90;;;;;;5012888;28;20477;-73
2023/05/21 11:23:55;;;;;;;11.03;10.03;;;25.40;99.90;;;;;;5012216;28;20395;-76
2023/05/21 11:26:26;;;;;;;11.83;10.47;;;26.30;99.10;;;;;;5012506;28;20399;-74
2023/05/21 11:29:03;;;;;;;11.43;10.43;;;26.50;98.40;;;;;;5011925;28;20455;-74
2023/05/21 11:31:36;;;;;;;11.93;10.70;;;26.60;98.30;;;;;;5012159;28;20415;-74
2023/05/21 11:34:27;;;;;;;10.63;9.63;;;26.90;97.90;;;;;;5012963;28;20392;-74
2023/05/21 11:37:16;;;;;;;11.80;10.80;;;27.00;97.80;;;;;;5012166;28;20525;-74
2023/05/21 11:39:45;;;;;;;11.40;10.40;;;26.90;97.10;;;;;;5011714;28;20979;-74
2023/05/21 11:42:10;;;;;;;11.17;10.27;;;26.80;97.50;;;;;;5009443;28;20423;-73
2023/05/21 11:44:43;;;;;;;10.00;9.20;;;27.10;98.50;;;;;;5012144;28;20478;-73
2023/05/21 11:47:11;;;;;;;10.30;9.40;;;27.10;96.90;;;;;;5016790;28;20542;-74
2023/05/21 11:49:37;;;;;;;10.90;10.00;;;27.80;97.40;;;;;;5015544;28;20425;-74
2023/05/21 11:52:05;;;;;;;10.47;9.57;;;27.30;96.20;;;;;;5015197;28;20407;-74
2023/05/21 11:54:35;;;;;;;10.50;9.70;;;27.50;96.30;;;;;;5016250;28;20501;-75
2023/05/21 11:57:01;;;;;;;10.43;9.53;;;27.20;96.90;;;;;;5013861;28;20921;-75
2023/05/21 11:59:32;;;;;;;12.77;11.43;;;27.00;96.80;;;;;;4995691;28;20450;-73
2023/05/21 12:01:58;;;;;;;10.60;9.80;;;27.00;96.50;;;;;;5010978;28;20926;-73
2023/05/21 12:04:28;;;;;;;9.70;9.00;;;26.90;96.10;;;;;;4995709;28;20450;-74
2023/05/21 12:06:54;;;;;;;9.53;8.63;;;27.30;96.00;;;;;;4996575;28;20415;-73
2023/05/21 12:09:20;;;;;;;9.10;8.30;;;27.20;95.10;;;;;;4995093;28;20461;-74
2023/05/21 12:11:45;;;;;;;10.27;9.37;;;26.70;96.00;;;;;;4995487;28;20399;-73
2023/05/21 12:14:11;;;;;;;11.00;10.00;;;26.70;95.70;;;;;;4997131;28;20404;-74
2023/05/21 12:16:38;;;;;;;11.57;10.57;;;26.80;96.40;;;;;;4994031;28;20193;-74
2023/05/21 12:19:05;;;;;;;12.17;9.90;;;26.70;96.10;;;;;;4995613;28;20215;-73
2023/05/21 12:21:31;;;;;;;9.47;8.47;;;26.00;96.10;;;;;;4995477;28;20973;-74
2023/05/21 12:23:57;;;;;;;9.43;8.63;;;26.40;95.50;;;;;;5008973;28;20438;-74
2023/05/21 12:26:26;;;;;;;9.40;8.60;;;26.10;95.70;;;;;;4996941;28;20408;-73
2023/05/21 12:28:55;;;;;;;8.93;8.13;;;26.40;95.30;;;;;;5014229;28;20446;-74
2023/05/21 12:31:22;;;;;;;11.23;10.23;;;26.80;95.20;;;;;;5014644;28;20465;-74